Weather at Ballina Byron Gateway Airport

Public forecast

Using degrees Celsius for public forecast. Weather courtesy of forecast.io.

Current aviation weather report (METAR) for Ballina Byron Gateway Airport

Retrieved 2020/09/28 12:00 UTC (34 minutes ago):

YBNA 281200Z AUTO 21003KT 9999 // NCD 13/10 Q1025

Closest aviation forecast (TAF) to Ballina Byron Gateway Airport

Closest forecast is Gold Coast Airport, 40.3 nm (74.7 km) N. Retrieved 2020/09/28 12:33 UTC (56 seconds ago):

TAF YBCG 281104Z 2812/2912 20006KT 9999 -SHRA SCT030 BKN050 FM290000 14014KT 9999 NSW FEW040 FM290900 19006KT 9999 FEW030